createdAt,value
2022-11-09T00:01:04.575Z,5.45
2022-11-09T00:03:31.609Z,6.78
2022-11-09T00:06:00.288Z,7.13
2022-11-09T00:08:28.280Z,9.40
2022-11-09T00:10:55.625Z,6.40
2022-11-09T00:13:23.005Z,6.72
2022-11-09T00:15:50.536Z,5.65
2022-11-09T00:18:17.542Z,7.13
2022-11-09T00:20:48.071Z,6.25
2022-11-09T00:23:16.626Z,11.65
2022-11-09T00:25:44.005Z,7.63
2022-11-09T00:28:11.064Z,6.68
2022-11-09T00:30:38.114Z,6.53
2022-11-09T00:33:05.172Z,5.38
2022-11-09T00:35:32.269Z,7.30
2022-11-09T00:37:59.388Z,5.70
2022-11-09T00:40:26.509Z,6.55
2022-11-09T00:42:53.726Z,5.38
2022-11-09T00:45:20.813Z,5.05
2022-11-09T00:47:48.015Z,5.38
2022-11-09T00:50:15.228Z,5.30
2022-11-09T00:52:42.956Z,6.63
2022-11-09T00:55:10.036Z,8.05
2022-11-09T00:57:37.071Z,5.72
2022-11-09T01:00:04.839Z,5.13
2022-11-09T01:02:31.838Z,7.72
2022-11-09T01:05:00.149Z,5.50
2022-11-09T01:07:27.217Z,6.03
2022-11-09T01:09:54.187Z,6.00
2022-11-09T01:12:24.659Z,5.55
2022-11-09T01:14:51.815Z,6.07
2022-11-09T01:17:18.888Z,8.73
2022-11-09T01:19:47.389Z,5.72
2022-11-09T01:22:15.754Z,4.90
2022-11-09T01:24:42.958Z,5.72
2022-11-09T01:27:10.044Z,7.88
2022-11-09T01:29:37.469Z,7.85
2022-11-09T01:32:04.831Z,5.03
2022-11-09T01:34:32.629Z,5.47
2022-11-09T01:37:02.519Z,7.35
2022-11-09T01:39:30.606Z,7.15
2022-11-09T01:41:57.675Z,6.43
2022-11-09T01:44:27.989Z,5.13
2022-11-09T01:47:24.144Z,5.30
2022-11-09T01:49:59.663Z,6.00
2022-11-09T01:52:32.683Z,7.57
2022-11-09T01:55:07.764Z,6.00
2022-11-09T01:57:39.895Z,6.85
2022-11-09T02:00:13.344Z,4.93
2022-11-09T02:02:50.670Z,5.10
2022-11-09T02:05:23.771Z,6.57
2022-11-09T02:07:54.067Z,5.57
2022-11-09T02:10:33.852Z,6.18
2022-11-09T02:13:03.597Z,3.85
2022-11-09T02:15:41.370Z,5.13
2022-11-09T02:18:12.157Z,7.53
2022-11-09T02:20:51.260Z,9.00
2022-11-09T02:23:19.477Z,7.45
2022-11-09T02:25:55.722Z,5.28
2022-11-09T02:28:24.322Z,7.35
2022-11-09T02:30:53.096Z,7.43
2022-11-09T02:33:20.916Z,8.07
2022-11-09T02:35:48.248Z,8.65
2022-11-09T02:38:16.002Z,6.90
2022-11-09T02:40:50.255Z,8.57
2022-11-09T02:43:18.942Z,7.55
2022-11-09T02:45:46.656Z,9.35
2022-11-09T02:48:14.422Z,8.02
2022-11-09T02:50:41.678Z,6.38
2022-11-09T02:53:09.060Z,6.20
2022-11-09T02:55:40.648Z,8.90
2022-11-09T02:58:08.720Z,5.22
2022-11-09T03:00:36.688Z,8.45
2022-11-09T03:03:04.614Z,7.72
2022-11-09T03:05:31.742Z,6.85
2022-11-09T03:08:02.616Z,4.80
2022-11-09T03:10:33.341Z,6.38
2022-11-09T03:13:01.405Z,7.15
2022-11-09T03:15:29.490Z,7.80
2022-11-09T03:17:56.985Z,7.43
2022-11-09T03:20:25.077Z,8.70
2022-11-09T03:22:52.257Z,5.10
2022-11-09T03:25:19.741Z,5.97
2022-11-09T03:27:47.008Z,7.70
2022-11-09T03:30:14.961Z,5.63
2022-11-09T03:32:45.653Z,7.75
2022-11-09T03:35:15.214Z,6.20
2022-11-09T03:37:42.279Z,7.20
2022-11-09T03:40:10.023Z,7.25
2022-11-09T03:42:42.962Z,5.85
2022-11-09T03:45:10.847Z,6.65
2022-11-09T03:47:44.683Z,7.43
2022-11-09T03:50:12.860Z,7.82
2022-11-09T03:52:39.883Z,4.10
2022-11-09T03:55:07.941Z,7.28
2022-11-09T03:57:35.054Z,5.80
2022-11-09T04:00:02.164Z,5.28
2022-11-09T04:02:38.853Z,7.93
2022-11-09T04:05:06.612Z,6.53
2022-11-09T04:07:33.727Z,7.53
2022-11-09T04:10:00.877Z,6.15
2022-11-09T04:12:27.895Z,6.68
2022-11-09T04:14:54.861Z,6.88
2022-11-09T04:17:21.979Z,7.53
2022-11-09T04:19:48.993Z,5.93
2022-11-09T04:22:16.105Z,8.27
2022-11-09T04:24:43.075Z,8.63
2022-11-09T04:27:10.075Z,4.88
2022-11-09T04:29:37.123Z,5.65
2022-11-09T04:32:04.114Z,5.57
2022-11-09T04:34:31.091Z,6.80
2022-11-09T04:36:58.159Z,10.00
2022-11-09T04:39:25.123Z,7.13
2022-11-09T04:41:52.149Z,6.75
2022-11-09T04:44:19.109Z,7.47
2022-11-09T04:46:46.184Z,6.03
2022-11-09T04:49:13.189Z,8.43
2022-11-09T04:51:40.139Z,5.40
2022-11-09T04:54:07.226Z,7.82
2022-11-09T04:56:34.189Z,5.82
2022-11-09T04:59:01.333Z,7.53
2022-11-09T05:01:28.367Z,9.48
2022-11-09T05:03:55.526Z,6.80
2022-11-09T05:06:34.706Z,6.70
2022-11-09T05:09:06.277Z,7.18
2022-11-09T05:14:01.213Z,6.85
2022-11-09T05:16:31.743Z,7.80
2022-11-09T05:18:58.712Z,8.40
2022-11-09T05:21:25.679Z,6.43
2022-11-09T05:24:01.556Z,6.00
2022-11-09T05:26:32.306Z,7.78
2022-11-09T05:29:00.997Z,6.95
2022-11-09T05:31:28.353Z,6.40
2022-11-09T05:33:56.123Z,6.57
2022-11-09T05:36:23.459Z,6.70
2022-11-09T05:38:51.437Z,6.35
2022-11-09T05:41:18.446Z,5.55
2022-11-09T05:43:46.055Z,4.82
2022-11-09T05:46:14.637Z,6.72
2022-11-09T05:48:42.901Z,9.45
2022-11-09T05:51:12.633Z,7.75
2022-11-09T05:53:45.011Z,7.57
2022-11-09T05:56:14.816Z,6.50
2022-11-09T05:58:42.502Z,7.80
2022-11-09T06:01:12.928Z,6.07
2022-11-09T06:03:40.550Z,10.98
2022-11-09T06:06:09.034Z,7.65
2022-11-09T06:08:36.567Z,7.88
2022-11-09T06:11:06.875Z,7.85
2022-11-09T06:13:34.160Z,7.63
2022-11-09T06:16:04.636Z,6.53
2022-11-09T06:18:33.536Z,7.95
2022-11-09T06:21:02.339Z,5.80
2022-11-09T06:23:30.326Z,7.25
2022-11-09T06:25:58.241Z,7.47
2022-11-09T06:28:25.574Z,9.57
2022-11-09T06:30:53.166Z,6.43
2022-11-09T06:33:20.475Z,7.93
2022-11-09T06:35:50.907Z,7.82
2022-11-09T06:38:22.058Z,5.15
2022-11-09T06:40:52.920Z,6.80
2022-11-09T06:43:20.427Z,8.77
2022-11-09T06:45:47.785Z,8.20
2022-11-09T06:48:14.795Z,5.93
2022-11-09T06:50:41.941Z,5.68
2022-11-09T06:53:12.911Z,6.10
2022-11-09T06:55:43.371Z,8.07
2022-11-09T06:58:16.037Z,5.82
2022-11-09T07:00:46.263Z,10.50
2022-11-09T07:03:18.795Z,7.15
2022-11-09T07:05:47.048Z,9.65
2022-11-09T07:08:15.515Z,7.75
2022-11-09T07:10:42.565Z,6.30
2022-11-09T07:13:10.597Z,5.28
2022-11-09T07:15:38.522Z,8.85
2022-11-09T07:18:08.251Z,9.77
2022-11-09T07:20:35.451Z,8.55
2022-11-09T07:23:02.450Z,7.72
2022-11-09T07:25:29.620Z,11.05
2022-11-09T07:28:07.617Z,13.07
2022-11-09T07:30:36.626Z,13.52
2022-11-09T07:33:09.633Z,6.32
2022-11-09T07:35:38.002Z,13.25
2022-11-09T07:38:05.362Z,6.97
2022-11-09T07:40:32.394Z,12.30
2022-11-09T07:43:01.017Z,8.25
2022-11-09T07:45:31.894Z,7.80
2022-11-09T07:48:00.928Z,7.90
2022-11-09T07:50:29.904Z,6.47
2022-11-09T07:52:57.909Z,7.70
2022-11-09T07:55:26.032Z,8.20
2022-11-09T07:58:01.403Z,8.13
2022-11-09T08:00:30.785Z,7.82
2022-11-09T08:02:58.208Z,10.05
2022-11-09T08:05:25.627Z,11.48
2022-11-09T08:08:04.226Z,13.05
2022-11-09T08:10:32.708Z,12.02
2022-11-09T08:13:04.225Z,8.70
2022-11-09T08:15:31.890Z,9.15
2022-11-09T08:18:01.072Z,10.82
2022-11-09T08:20:29.297Z,8.18
2022-11-09T08:22:59.642Z,5.63
2022-11-09T08:25:30.679Z,5.78
2022-11-09T08:27:57.850Z,6.13
2022-11-09T08:30:25.288Z,6.85
2022-11-09T08:32:53.150Z,7.32
2022-11-09T08:35:23.542Z,6.68
2022-11-09T08:37:52.119Z,8.43
2022-11-09T08:40:22.893Z,6.63
2022-11-09T08:42:50.592Z,8.80
2022-11-09T08:45:18.063Z,7.47
2022-11-09T08:47:45.974Z,7.80
2022-11-09T08:50:14.841Z,6.43
2022-11-09T08:52:41.969Z,5.40
2022-11-09T08:55:09.335Z,5.35
2022-11-09T08:57:36.715Z,5.97
2022-11-09T09:00:05.025Z,5.50
2022-11-09T09:02:32.232Z,6.95
2022-11-09T09:04:59.435Z,6.20
2022-11-09T09:07:26.754Z,7.57
2022-11-09T09:09:53.805Z,8.57
2022-11-09T09:12:20.794Z,9.55
2022-11-09T09:14:47.890Z,7.45
2022-11-09T09:17:15.039Z,6.60
2022-11-09T09:19:47.297Z,7.32
2022-11-09T09:22:16.889Z,7.60
2022-11-09T09:24:43.919Z,6.70
2022-11-09T09:27:10.979Z,6.35
2022-11-09T09:29:37.979Z,7.50
2022-11-09T09:32:05.332Z,10.50
2022-11-09T09:34:32.309Z,9.57
2022-11-09T09:36:59.498Z,7.38
2022-11-09T09:39:26.621Z,6.40
2022-11-09T09:41:56.556Z,7.53
2022-11-09T09:44:32.835Z,8.30
2022-11-09T09:47:34.562Z,7.63
2022-11-09T09:50:06.108Z,7.43
2022-11-09T09:55:37.016Z,6.97
2022-11-09T09:58:28.336Z,8.88
2022-11-09T10:01:28.004Z,8.27
2022-11-09T10:03:55.020Z,8.52
2022-11-09T10:06:59.825Z,9.10
2022-11-09T10:09:53.351Z,6.88
2022-11-09T10:12:34.543Z,8.82
2022-11-09T10:15:16.931Z,5.95
2022-11-09T10:18:01.771Z,7.20
2022-11-09T10:20:51.716Z,6.22
2022-11-09T10:23:35.489Z,7.17
2022-11-09T10:26:07.908Z,6.25
2022-11-09T10:29:13.890Z,7.25
2022-11-09T10:31:34.722Z,8.63
2022-11-09T10:34:26.191Z,8.38
2022-11-09T10:37:01.635Z,14.13
2022-11-09T10:39:42.797Z,6.78
2022-11-09T10:42:28.335Z,9.00
2022-11-09T10:45:31.599Z,6.80
2022-11-09T10:48:34.654Z,5.80
2022-11-09T10:51:35.630Z,7.35
2022-11-09T10:54:28.073Z,5.80
2022-11-09T10:57:19.303Z,5.85
2022-11-09T11:00:06.616Z,7.97
2022-11-09T11:02:53.343Z,7.68
2022-11-09T11:05:39.924Z,13.02
2022-11-09T11:08:29.621Z,8.02
2022-11-09T11:11:39.775Z,13.27
2022-11-09T11:14:30.578Z,9.40
2022-11-09T11:17:27.924Z,10.77
2022-11-09T11:20:30.553Z,7.03
2022-11-09T11:23:21.863Z,10.55
2022-11-09T11:26:19.796Z,7.10
2022-11-09T11:29:25.283Z,13.45
2022-11-09T11:32:14.878Z,9.98
2022-11-09T11:35:01.644Z,13.80
2022-11-09T11:38:32.474Z,11.35
2022-11-09T11:41:20.995Z,12.05
2022-11-09T11:44:27.503Z,10.70
2022-11-09T11:47:37.350Z,14.48
2022-11-09T11:50:40.555Z,15.20
2022-11-09T11:54:13.709Z,10.57
2022-11-09T11:57:08.341Z,10.98
2022-11-09T11:59:59.310Z,14.18
2022-11-09T12:02:56.946Z,15.95
2022-11-09T12:06:06.946Z,13.20
2022-11-09T12:09:10.627Z,12.90
2022-11-09T12:12:31.348Z,13.32
2022-11-09T12:15:22.906Z,14.68
2022-11-09T12:18:11.576Z,14.52
2022-11-09T12:21:29.052Z,13.57
2022-11-09T12:24:32.770Z,12.82
2022-11-09T12:27:32.219Z,12.07
2022-11-09T12:30:21.549Z,11.52
2022-11-09T12:33:19.705Z,10.95
2022-11-09T12:36:24.524Z,12.27
2022-11-09T12:39:16.300Z,13.70
2022-11-09T12:42:09.541Z,8.80
2022-11-09T12:45:13.681Z,12.88
2022-11-09T12:48:05.418Z,9.93
2022-11-09T12:53:39.284Z,16.98
2022-11-09T12:56:31.910Z,9.90
2022-11-09T12:59:29.731Z,8.25
2022-11-09T13:02:34.813Z,9.25
2022-11-09T13:05:31.865Z,12.40
2022-11-09T13:08:30.144Z,11.45
2022-11-09T13:11:20.316Z,12.40
2022-11-09T13:14:27.470Z,10.20
2022-11-09T13:17:24.956Z,11.45
2022-11-09T13:26:48.423Z,15.18
2022-11-09T13:29:41.701Z,13.50
2022-11-09T13:32:33.704Z,10.32
2022-11-09T13:35:41.470Z,10.20
2022-11-09T13:38:30.237Z,12.27
2022-11-09T13:41:32.024Z,11.45
2022-11-09T13:44:32.854Z,8.90
2022-11-09T13:51:46.559Z,14.25
2022-11-09T13:54:35.806Z,10.00
2022-11-09T13:57:23.777Z,13.57
2022-11-09T14:00:23.581Z,11.68
2022-11-09T14:03:25.013Z,8.75
2022-11-09T14:06:12.564Z,9.43
2022-11-09T14:08:59.767Z,11.00
2022-11-09T14:11:51.144Z,10.23
2022-11-09T14:14:36.443Z,10.75
2022-11-09T14:17:41.736Z,12.45
2022-11-09T14:20:45.561Z,10.40
2022-11-09T14:23:32.909Z,14.23
2022-11-09T14:26:23.533Z,12.75
2022-11-09T14:29:22.082Z,15.60
2022-11-09T14:32:37.386Z,12.98
2022-11-09T14:35:37.375Z,13.68
2022-11-09T14:38:28.077Z,13.05
2022-11-09T14:41:22.984Z,16.48
2022-11-09T14:44:18.614Z,14.48
2022-11-09T14:47:04.910Z,13.50
2022-11-09T14:49:50.772Z,13.75
2022-11-09T14:52:36.719Z,11.85
2022-11-09T14:55:23.910Z,12.98
2022-11-09T14:58:13.204Z,12.30
2022-11-09T15:01:20.171Z,14.88
2022-11-09T15:04:12.685Z,12.52
2022-11-09T15:07:02.539Z,14.32
2022-11-09T15:09:57.525Z,13.05
2022-11-09T15:12:52.893Z,14.73
2022-11-09T15:15:38.982Z,15.90
2022-11-09T15:18:33.513Z,17.00
2022-11-09T15:21:32.204Z,14.57
2022-11-09T15:24:19.628Z,13.85
2022-11-09T15:27:33.125Z,15.32
2022-11-09T15:30:43.150Z,15.25
2022-11-09T15:33:49.152Z,15.73
2022-11-09T15:36:37.743Z,16.55
2022-11-09T15:39:25.530Z,17.85
2022-11-09T15:42:11.951Z,16.05
2022-11-09T15:48:03.737Z,20.05
2022-11-09T15:50:49.013Z,14.15
2022-11-09T15:53:34.717Z,18.30
2022-11-09T15:56:23.567Z,14.07
2022-11-09T15:59:26.067Z,15.80
2022-11-09T16:02:12.506Z,15.85
2022-11-09T16:04:58.104Z,16.40
2022-11-09T16:07:52.566Z,17.05
2022-11-09T16:10:40.053Z,16.70
2022-11-09T16:13:26.061Z,13.30
2022-11-09T16:16:14.114Z,15.32
2022-11-09T16:18:59.993Z,17.88
2022-11-09T16:21:45.330Z,16.10
2022-11-09T16:24:31.000Z,16.52
2022-11-09T16:27:43.358Z,16.83
2022-11-09T16:30:23.967Z,15.85
2022-11-09T16:33:09.989Z,18.17
2022-11-09T16:35:57.625Z,16.08
2022-11-09T16:38:46.391Z,16.95
2022-11-09T16:41:32.371Z,17.35
2022-11-09T16:44:22.393Z,19.25
2022-11-09T16:47:10.226Z,14.07
2022-11-09T16:49:55.848Z,15.50
2022-11-09T16:52:41.513Z,17.08
2022-11-09T16:55:27.369Z,15.30
2022-11-09T16:58:12.610Z,16.17
2022-11-09T17:01:16.381Z,19.45
2022-11-09T17:04:05.029Z,19.00
2022-11-09T17:06:54.814Z,15.73
2022-11-09T17:09:40.538Z,16.00
2022-11-09T17:12:29.603Z,17.95
2022-11-09T17:15:14.858Z,17.95
2022-11-09T17:18:00.327Z,17.00
2022-11-09T17:20:48.635Z,23.48
2022-11-09T17:23:34.081Z,26.20
2022-11-09T17:26:20.626Z,24.27
2022-11-09T17:29:07.325Z,21.95
2022-11-09T17:31:53.572Z,23.63
2022-11-09T17:34:39.080Z,21.17
2022-11-09T17:37:27.215Z,18.48
2022-11-09T17:40:13.559Z,17.25
2022-11-09T17:43:00.149Z,17.50
2022-11-09T17:45:46.168Z,15.77
2022-11-09T17:48:34.790Z,17.30
2022-11-09T17:51:22.266Z,16.58
2022-11-09T17:54:09.393Z,14.40
2022-11-09T17:56:55.961Z,16.30
2022-11-09T17:59:42.222Z,16.95
2022-11-09T18:02:28.464Z,17.52
2022-11-09T18:05:16.760Z,18.15
2022-11-09T18:08:03.015Z,19.60
2022-11-09T18:10:50.711Z,16.90
2022-11-09T18:13:37.661Z,18.17
2022-11-09T18:16:24.363Z,18.60
2022-11-09T18:19:10.338Z,16.30
2022-11-09T18:21:58.500Z,16.60
2022-11-09T18:24:47.345Z,17.77
2022-11-09T18:27:33.381Z,23.23
2022-11-09T18:30:19.935Z,22.02
2022-11-09T18:33:07.657Z,18.00
2022-11-09T18:36:02.783Z,17.38
2022-11-09T18:38:53.048Z,16.05
2022-11-09T18:41:43.391Z,17.17
2022-11-09T18:44:30.055Z,15.20
2022-11-09T18:47:16.540Z,17.85
2022-11-09T18:50:04.349Z,23.42
2022-11-09T18:52:50.215Z,20.92
2022-11-09T18:55:36.908Z,19.33
2022-11-09T18:58:23.423Z,17.92
2022-11-09T19:01:10.183Z,21.02
2022-11-09T19:03:59.742Z,19.08
2022-11-09T19:06:47.030Z,17.25
2022-11-09T19:09:36.237Z,17.13
2022-11-09T19:12:22.285Z,17.85
2022-11-09T19:15:08.727Z,21.50
2022-11-09T19:17:55.059Z,18.27
2022-11-09T19:20:41.356Z,15.77
2022-11-09T19:23:33.829Z,18.08
2022-11-09T19:26:21.628Z,15.80
2022-11-09T19:29:09.340Z,16.50
2022-11-09T19:31:55.775Z,19.25
2022-11-09T19:34:43.117Z,15.07
2022-11-09T19:37:29.794Z,17.45
2022-11-09T19:40:16.595Z,17.48
2022-11-09T19:43:02.569Z,17.38
2022-11-09T19:45:51.691Z,16.42
2022-11-09T19:48:43.774Z,14.10
2022-11-09T19:51:31.575Z,13.75
2022-11-09T19:54:17.954Z,12.63
2022-11-09T19:57:05.232Z,14.07
2022-11-09T19:59:51.341Z,10.90
2022-11-09T20:02:37.410Z,12.38
2022-11-09T20:05:23.488Z,12.02
2022-11-09T20:08:09.379Z,12.68
2022-11-09T20:10:55.967Z,10.32
2022-11-09T20:13:42.241Z,10.45
2022-11-09T20:16:30.131Z,13.25
2022-11-09T20:19:17.143Z,13.95
2022-11-09T20:22:03.407Z,13.77
2022-11-09T20:24:49.967Z,12.43
2022-11-09T20:27:36.035Z,11.98
2022-11-09T20:30:22.310Z,10.68
2022-11-09T20:33:10.072Z,13.95
2022-11-09T20:35:56.365Z,13.48
2022-11-09T20:38:43.010Z,12.07
2022-11-09T20:41:29.374Z,11.50
2022-11-09T20:44:15.823Z,11.40
2022-11-09T20:47:02.468Z,12.07
2022-11-09T20:49:49.602Z,12.48
2022-11-09T20:52:36.227Z,13.27
2022-11-09T20:55:24.906Z,10.75
2022-11-09T20:58:14.876Z,12.80
2022-11-09T21:01:10.898Z,11.10
2022-11-09T21:03:57.097Z,12.15
2022-11-09T21:06:42.839Z,11.40
2022-11-09T21:09:28.230Z,14.45
2022-11-09T21:12:22.463Z,14.15
2022-11-09T21:15:08.696Z,11.63
2022-11-09T21:17:54.620Z,10.45
2022-11-09T21:20:41.422Z,12.27
2022-11-09T21:23:27.088Z,13.55
2022-11-09T21:26:31.338Z,11.82
2022-11-09T21:29:37.803Z,11.18
2022-11-09T21:32:23.952Z,10.55
2022-11-09T21:35:09.767Z,9.95
2022-11-09T21:37:57.821Z,10.20
2022-11-09T21:40:43.771Z,9.20
2022-11-09T21:43:29.572Z,10.63
2022-11-09T21:46:14.945Z,11.60
2022-11-09T21:49:00.891Z,11.85
2022-11-09T21:51:47.162Z,13.38
2022-11-09T21:54:32.507Z,13.07
2022-11-09T21:57:18.069Z,10.50
2022-11-09T22:00:04.295Z,10.13
2022-11-09T22:02:51.169Z,11.73
2022-11-09T22:05:36.352Z,11.05
2022-11-09T22:08:22.184Z,9.38
2022-11-09T22:11:16.700Z,11.68
2022-11-09T22:14:20.727Z,9.15
2022-11-09T22:17:08.729Z,11.43
2022-11-09T22:20:12.773Z,10.88
2022-11-09T22:22:57.962Z,10.20
2022-11-09T22:25:47.801Z,9.52
2022-11-09T22:28:33.777Z,11.75
2022-11-09T22:31:19.190Z,9.63
2022-11-09T22:34:04.854Z,8.25
2022-11-09T22:36:50.539Z,14.60
2022-11-09T22:39:35.916Z,13.93
2022-11-09T22:42:21.656Z,13.60
2022-11-09T22:45:07.505Z,10.82
2022-11-09T22:47:53.137Z,8.77
2022-11-09T22:50:38.782Z,9.50
2022-11-09T22:53:24.354Z,9.75
2022-11-09T22:56:10.914Z,13.88
2022-11-09T22:58:56.240Z,11.13
2022-11-09T23:01:41.605Z,11.23
2022-11-09T23:04:27.001Z,11.80
2022-11-09T23:07:12.588Z,8.43
2022-11-09T23:09:58.065Z,10.27
2022-11-09T23:12:43.503Z,9.65
2022-11-09T23:15:28.974Z,8.45
2022-11-09T23:18:33.006Z,8.98
2022-11-09T23:21:19.122Z,8.50
2022-11-09T23:24:06.920Z,11.57
2022-11-09T23:26:52.460Z,11.48
2022-11-09T23:29:38.030Z,8.40
2022-11-09T23:32:23.728Z,7.32
2022-11-09T23:35:09.904Z,9.07
2022-11-09T23:38:04.465Z,8.68
2022-11-09T23:40:50.117Z,13.57
2022-11-09T23:43:36.808Z,11.93
2022-11-09T23:46:22.091Z,11.60
2022-11-09T23:49:07.777Z,11.15
2022-11-09T23:51:53.386Z,8.73
2022-11-09T23:54:38.828Z,9.63
2022-11-09T23:57:24.233Z,12.02
